Time;durP1;ratioP1;P1;durP2;ratioP2;P2;SDS_P1;SDS_P2;PMS_P1;PMS_P2;Temp;Humidity;BMP_temperature;BMP_pressure;BME280_temperature;BME280_humidity;BME280_pressure;Samples;Min_cycle;Max_cycle;Signal;HPM_P1;HPM_P2
2022/01/23 00:00:03;;;;;;;12.98;7.07;;;6.10;99.90;;;;;;4996602;28;20124;-71
2022/01/23 00:02:29;;;;;;;13.10;6.43;;;6.10;99.90;;;;;;5007142;28;20042;-71
2022/01/23 00:04:55;;;;;;;13.15;6.47;;;6.10;99.90;;;;;;5004872;28;20080;-71
2022/01/23 00:07:21;;;;;;;13.88;6.72;;;6.10;99.90;;;;;;5005016;28;20081;-71
2022/01/23 00:09:47;;;;;;;16.98;8.00;;;6.20;99.90;;;;;;5005271;28;20050;-71
2022/01/23 00:12:20;;;;;;;16.02;8.50;;;6.10;99.90;;;;;;5007067;28;20719;-71
2022/01/23 00:17:34;;;;;;;12.80;8.70;;;6.10;99.90;;;;;;5007178;28;20050;-71
2022/01/23 00:20:06;;;;;;;17.77;8.88;;;6.10;99.90;;;;;;5004741;28;20050;-71
2022/01/23 00:22:58;;;;;;;12.38;8.10;;;6.10;99.90;;;;;;5006276;28;20491;-71
2022/01/23 00:30:49;;;;;;;13.63;7.38;;;6.10;99.90;;;;;;5009518;28;20066;-71
2022/01/23 00:33:18;;;;;;;10.85;6.10;;;6.10;99.90;;;;;;5010048;28;20050;-71
2022/01/23 00:35:45;;;;;;;11.60;6.93;;;6.20;99.90;;;;;;5009488;28;20080;-71
2022/01/23 00:38:11;;;;;;;;;;;6.10;99.90;;;;;;5011261;28;20041;-71
2022/01/23 00:40:40;;;;;;;12.02;6.68;;;6.10;99.90;;;;;;5007478;28;20020;-71
2022/01/23 00:43:14;;;;;;;13.05;6.85;;;6.10;99.90;;;;;;5009843;28;20100;-71
2022/01/23 00:45:46;;;;;;;12.93;7.22;;;6.10;99.90;;;;;;5009106;28;20050;-71
2022/01/23 00:48:13;;;;;;;16.38;6.85;;;6.20;99.90;;;;;;5006309;28;20121;-71
2022/01/23 00:50:41;;;;;;;13.93;6.65;;;6.10;99.90;;;;;;5009688;28;20076;-72
2022/01/23 00:53:09;;;;;;;12.07;6.43;;;6.10;99.90;;;;;;5007537;28;20741;-71
2022/01/23 00:55:36;;;;;;;12.57;6.97;;;6.10;99.90;;;;;;5009404;28;20081;-71
2022/01/23 00:58:02;;;;;;;12.83;7.00;;;6.10;99.90;;;;;;5008954;28;20512;-72
2022/01/23 01:00:27;;;;;;;10.38;6.63;;;6.10;99.90;;;;;;5006878;28;20332;-71
2022/01/23 01:02:53;;;;;;;12.13;6.75;;;6.10;99.90;;;;;;5007791;28;20034;-71
2022/01/23 01:05:19;;;;;;;11.23;6.65;;;6.10;99.90;;;;;;5006312;28;20057;-71
2022/01/23 01:07:45;;;;;;;13.90;7.10;;;6.10;99.90;;;;;;5004521;28;20041;-71
2022/01/23 01:10:22;;;;;;;13.48;7.03;;;6.10;99.90;;;;;;5009577;28;20054;-71
2022/01/23 01:12:50;;;;;;;14.38;6.80;;;6.10;99.90;;;;;;5010171;28;20034;-71
2022/01/23 01:38:42;;;;;;;17.40;7.57;;;6.10;99.90;;;;;;5002518;28;20549;-71
2022/01/23 01:41:08;;;;;;;13.02;7.57;;;6.10;99.90;;;;;;5007027;28;20045;-70
2022/01/23 01:43:37;;;;;;;17.40;8.20;;;6.10;99.90;;;;;;5008274;28;20562;-71
2022/01/23 01:46:03;;;;;;;13.55;8.48;;;6.10;99.90;;;;;;5008536;28;20076;-71
2022/01/23 01:48:29;;;;;;;15.25;7.55;;;6.10;99.90;;;;;;5006909;28;20474;-71
2022/01/23 01:50:55;;;;;;;15.70;7.85;;;6.10;99.90;;;;;;5005934;28;20081;-71
2022/01/23 01:53:24;;;;;;;12.07;7.68;;;6.10;99.90;;;;;;5003020;28;20050;-71
2022/01/23 01:55:54;;;;;;;14.50;7.63;;;6.10;99.90;;;;;;5010100;28;20057;-71
2022/01/23 02:09:27;;;;;;;11.32;7.97;;;6.00;99.90;;;;;;5007194;28;20054;-72
2022/01/23 02:12:22;;;;;;;11.80;7.65;;;6.00;99.90;;;;;;5004300;28;20049;-71
2022/01/23 02:55:46;;;;;;;14.93;8.63;;;5.90;99.90;;;;;;5004888;28;20046;-71
2022/01/23 02:58:16;;;;;;;12.73;8.15;;;5.90;99.90;;;;;;5005203;28;20057;-71
2022/01/23 03:01:07;;;;;;;13.80;8.18;;;5.90;99.90;;;;;;5007426;28;20488;-71
2022/01/23 03:03:38;;;;;;;13.65;8.07;;;5.90;99.90;;;;;;5004456;28;20078;-71
2022/01/23 03:28:21;;;;;;;18.75;9.50;;;5.90;99.90;;;;;;5006152;28;20409;-71
2022/01/23 03:33:29;;;;;;;17.90;9.55;;;5.90;99.90;;;;;;5007743;28;20468;-71
2022/01/23 03:35:54;;;;;;;16.05;10.00;;;5.90;99.90;;;;;;5002056;28;20046;-71
2022/01/23 03:38:20;;;;;;;16.52;9.57;;;5.90;99.90;;;;;;5006035;28;20441;-72
2022/01/23 03:40:45;;;;;;;13.35;8.73;;;6.00;99.90;;;;;;5006432;28;20077;-71
2022/01/23 03:43:14;;;;;;;16.35;10.25;;;5.90;99.90;;;;;;5001547;28;20045;-71
2022/01/23 03:50:42;;;;;;;17.55;10.43;;;5.90;99.90;;;;;;5005310;28;20049;-71
2022/01/23 03:53:08;;;;;;;19.40;10.68;;;5.90;99.90;;;;;;5006880;28;20042;-71
2022/01/23 03:55:34;;;;;;;17.75;10.75;;;5.90;99.90;;;;;;5007890;28;20092;-71
2022/01/23 03:58:00;;;;;;;14.57;9.70;;;5.90;99.90;;;;;;5004196;28;20050;-71
2022/01/23 04:00:26;;;;;;;18.85;10.30;;;5.90;99.90;;;;;;5006823;28;20046;-70
2022/01/23 04:02:52;;;;;;;16.17;9.40;;;5.90;99.90;;;;;;5006600;28;20038;-71
2022/01/23 04:05:18;;;;;;;14.55;9.55;;;5.90;99.90;;;;;;5005906;28;20060;-73
2022/01/23 04:07:45;;;;;;;17.02;10.80;;;5.90;99.90;;;;;;5009714;28;20049;-71
2022/01/23 04:10:13;;;;;;;16.40;9.82;;;5.90;99.90;;;;;;5004476;28;20077;-71
2022/01/23 04:12:58;;;;;;;19.40;10.00;;;6.00;99.90;;;;;;5010103;28;20091;-71
2022/01/23 04:34:32;;;;;;;16.35;10.10;;;6.00;99.90;;;;;;5007284;28;20049;-71
2022/01/23 04:45:25;;;;;;;15.85;9.93;;;5.90;99.90;;;;;;5009657;28;20738;-71
2022/01/23 05:06:58;;;;;;;18.35;11.73;;;5.90;99.90;;;;;;5018498;28;20058;-71
2022/01/23 05:09:24;;;;;;;17.83;10.60;;;5.90;99.90;;;;;;5007486;28;20053;-71
2022/01/23 05:11:55;;;;;;;18.15;11.25;;;5.90;99.90;;;;;;5010381;28;20053;-71
2022/01/23 05:14:28;;;;;;;19.70;12.20;;;5.90;99.90;;;;;;5008942;28;20062;-72
2022/01/23 05:16:54;;;;;;;19.65;12.52;;;5.90;99.90;;;;;;5007641;28;20505;-71
2022/01/23 05:19:20;;;;;;;17.15;11.50;;;5.90;99.90;;;;;;5005713;28;20539;-71
2022/01/23 05:24:22;;;;;;;20.33;13.05;;;5.90;99.90;;;;;;5008581;28;20161;-71
2022/01/23 05:26:48;;;;;;;19.95;11.25;;;5.90;99.90;;;;;;5008263;28;20505;-70
2022/01/23 05:29:14;;;;;;;18.98;11.77;;;5.90;99.90;;;;;;5010064;28;20076;-71
2022/01/23 05:31:41;;;;;;;17.02;13.15;;;6.00;99.90;;;;;;5009615;28;20107;-72
2022/01/23 05:34:07;;;;;;;19.13;12.52;;;6.00;99.90;;;;;;5009739;28;20045;-71
2022/01/23 05:36:33;;;;;;;17.95;13.00;;;6.00;99.90;;;;;;5008932;28;20046;-72
2022/01/23 05:38:59;;;;;;;18.33;12.10;;;6.00;99.90;;;;;;5008582;28;20041;-71
2022/01/23 05:41:25;;;;;;;21.10;13.70;;;6.00;99.90;;;;;;5008950;28;20434;-71
2022/01/23 05:43:51;;;;;;;20.05;12.40;;;6.00;99.90;;;;;;5006172;28;20058;-71
2022/01/23 05:46:17;;;;;;;17.52;12.65;;;6.00;99.90;;;;;;5008458;28;20037;-71
2022/01/23 05:48:43;;;;;;;20.10;13.38;;;6.00;99.90;;;;;;5009744;28;20085;-71
2022/01/23 05:51:12;;;;;;;19.67;12.45;;;6.00;99.90;;;;;;5008292;28;20057;-72
2022/01/23 05:53:41;;;;;;;18.48;13.00;;;6.00;99.90;;;;;;5006986;28;20042;-71
2022/01/23 05:56:07;;;;;;;20.70;13.68;;;6.00;99.90;;;;;;5008069;28;20128;-71
2022/01/23 05:58:33;;;;;;;20.13;13.05;;;5.90;99.90;;;;;;5006028;28;20437;-71
2022/01/23 06:00:58;;;;;;;19.90;13.27;;;5.90;99.90;;;;;;5007001;28;20052;-71
2022/01/23 06:03:24;;;;;;;18.77;13.05;;;6.00;99.90;;;;;;5007413;28;20045;-71
2022/01/23 06:05:50;;;;;;;20.52;13.07;;;6.00;99.90;;;;;;5005342;28;20054;-71
2022/01/23 06:08:15;;;;;;;22.42;13.65;;;6.00;99.90;;;;;;5006476;28;20060;-71
2022/01/23 06:10:54;;;;;;;21.65;14.75;;;6.00;99.90;;;;;;5007379;28;20088;-71
2022/01/23 06:13:21;;;;;;;19.75;13.52;;;5.90;99.90;;;;;;5007417;28;20048;-71
2022/01/23 06:15:47;;;;;;;20.90;14.07;;;5.90;99.90;;;;;;5008119;28;20108;-71
2022/01/23 06:18:13;;;;;;;20.70;14.20;;;5.90;99.90;;;;;;5005816;28;20048;-71
2022/01/23 06:20:38;;;;;;;19.65;14.13;;;5.90;99.90;;;;;;5005643;28;20050;-71
2022/01/23 06:23:04;;;;;;;23.77;14.05;;;5.90;99.90;;;;;;5005630;28;20087;-71
2022/01/23 06:25:34;;;;;;;21.10;14.63;;;6.00;99.90;;;;;;5007592;28;20478;-71
2022/01/23 06:28:00;;;;;;;19.85;13.82;;;6.00;99.90;;;;;;5007532;28;20042;-71
2022/01/23 06:30:26;;;;;;;20.35;13.60;;;6.00;99.90;;;;;;5006505;28;20059;-71
2022/01/23 06:32:52;;;;;;;20.23;14.05;;;5.90;99.90;;;;;;5005305;28;20470;-71
2022/01/23 06:35:17;;;;;;;20.17;14.10;;;6.00;99.90;;;;;;5008458;28;20063;-71
2022/01/23 06:37:43;;;;;;;21.20;13.90;;;6.00;99.90;;;;;;5006102;28;20125;-71
2022/01/23 06:40:09;;;;;;;16.77;13.65;;;5.90;99.90;;;;;;5004562;28;20486;-71
2022/01/23 06:42:35;;;;;;;19.98;13.60;;;6.00;99.90;;;;;;5008157;28;20060;-71
2022/01/23 06:45:00;;;;;;;19.73;13.25;;;6.00;99.90;;;;;;5005975;28;20123;-71
2022/01/23 06:47:26;;;;;;;19.77;13.30;;;5.90;99.90;;;;;;5006888;28;20409;-71
2022/01/23 06:49:52;;;;;;;17.40;12.57;;;6.00;99.90;;;;;;5007556;28;20573;-71
2022/01/23 06:52:18;;;;;;;16.80;12.23;;;6.00;99.90;;;;;;5004153;28;20631;-71
2022/01/23 06:54:43;;;;;;;20.60;13.30;;;5.90;99.90;;;;;;5006714;28;20045;-71
2022/01/23 06:57:09;;;;;;;16.60;12.45;;;5.90;99.90;;;;;;5007171;28;20072;-71
2022/01/23 06:59:34;;;;;;;16.83;12.57;;;5.90;99.90;;;;;;5020074;28;20116;-71
2022/01/23 07:02:01;;;;;;;17.63;11.60;;;5.90;99.90;;;;;;4999518;28;20181;-71
2022/01/23 07:04:26;;;;;;;19.35;12.98;;;6.00;99.90;;;;;;5022721;28;20480;-71
2022/01/23 07:06:52;;;;;;;18.65;12.23;;;6.00;99.90;;;;;;5008829;28;20053;-70
2022/01/23 07:09:18;;;;;;;18.88;12.25;;;6.00;99.90;;;;;;5003932;28;20034;-71
2022/01/23 07:11:44;;;;;;;17.50;12.68;;;5.90;99.90;;;;;;5006254;28;20042;-72
2022/01/23 07:14:10;;;;;;;19.95;12.45;;;6.00;99.90;;;;;;4997910;28;20056;-71
2022/01/23 07:16:36;;;;;;;18.17;13.05;;;6.00;99.90;;;;;;4999520;28;20046;-71
2022/01/23 07:19:02;;;;;;;16.88;11.70;;;5.90;99.90;;;;;;4998788;28;20420;-71
2022/01/23 07:21:27;;;;;;;16.83;11.55;;;6.00;99.90;;;;;;5004808;28;20509;-71
2022/01/23 07:23:53;;;;;;;15.32;11.98;;;6.00;99.90;;;;;;5004764;28;20097;-71
2022/01/23 07:26:22;;;;;;;20.30;12.82;;;6.00;99.90;;;;;;5008067;28;20393;-71
2022/01/23 07:28:48;;;;;;;22.80;12.77;;;6.00;99.90;;;;;;5003611;28;20057;-71
2022/01/23 07:31:31;;;;;;;16.50;12.47;;;5.90;99.90;;;;;;5006999;28;20069;-72
2022/01/23 07:34:03;;;;;;;19.58;13.50;;;5.90;99.90;;;;;;5006416;28;20052;-71
2022/01/23 07:36:29;;;;;;;19.20;13.68;;;5.90;99.90;;;;;;5006862;28;20042;-71
2022/01/23 07:38:55;;;;;;;19.20;13.52;;;5.90;99.90;;;;;;5004556;28;20065;-71
2022/01/23 07:41:21;;;;;;;21.75;14.48;;;5.90;99.90;;;;;;5005346;28;20462;-71
2022/01/23 07:43:47;;;;;;;19.75;14.20;;;5.90;99.90;;;;;;5006172;28;20045;-71
2022/01/23 07:46:13;;;;;;;21.50;14.60;;;6.00;99.90;;;;;;5005522;28;20056;-72
2022/01/23 07:48:39;;;;;;;24.30;15.43;;;6.00;99.90;;;;;;5004224;28;20042;-71
2022/01/23 07:51:05;;;;;;;24.55;14.75;;;6.00;99.90;;;;;;5007970;28;20100;-71
2022/01/23 07:53:31;;;;;;;21.00;13.60;;;5.90;99.90;;;;;;5007310;28;20037;-71
2022/01/23 07:56:02;;;;;;;21.70;13.43;;;5.90;99.90;;;;;;5006789;28;20049;-71
2022/01/23 07:58:29;;;;;;;19.48;13.45;;;5.90;99.90;;;;;;5006472;28;20050;-71
2022/01/23 08:00:54;;;;;;;18.30;13.45;;;6.00;99.90;;;;;;5007275;28;20041;-71
2022/01/23 08:03:20;;;;;;;22.25;14.40;;;6.00;99.90;;;;;;5001930;28;20050;-72
2022/01/23 08:05:46;;;;;;;20.50;13.38;;;6.00;99.90;;;;;;4990324;28;20050;-75
2022/01/23 08:08:12;;;;;;;19.50;13.52;;;6.00;99.90;;;;;;5005824;28;20122;-71
2022/01/23 08:10:39;;;;;;;19.77;13.00;;;6.00;99.90;;;;;;5004237;28;20054;-72
2022/01/23 08:13:05;;;;;;;24.17;14.13;;;6.00;99.90;;;;;;5006058;28;21026;-74
2022/01/23 08:15:34;;;;;;;20.50;14.40;;;6.00;99.90;;;;;;5010922;28;20077;-72
2022/01/23 08:18:02;;;;;;;28.13;15.93;;;6.00;99.90;;;;;;5010467;28;20046;-71
2022/01/23 08:20:29;;;;;;;24.02;14.40;;;6.00;99.90;;;;;;5004247;28;20075;-71
2022/01/23 08:22:55;;;;;;;24.05;15.13;;;6.00;99.90;;;;;;5006522;28;20161;-70
2022/01/23 08:25:21;;;;;;;27.30;16.02;;;6.00;99.90;;;;;;5006582;28;20075;-71
2022/01/23 08:27:46;;;;;;;23.80;14.77;;;6.00;99.90;;;;;;5004855;28;20092;-70
2022/01/23 08:30:13;;;;;;;24.67;15.73;;;6.10;99.90;;;;;;5008291;28;20080;-70
2022/01/23 08:32:39;;;;;;;25.90;16.27;;;6.00;99.90;;;;;;5006762;28;20064;-70
2022/01/23 08:35:05;;;;;;;23.10;15.27;;;6.10;99.90;;;;;;5007233;28;20426;-69
2022/01/23 08:37:31;;;;;;;25.85;16.33;;;6.10;99.90;;;;;;5006026;28;20092;-70
2022/01/23 08:39:57;;;;;;;24.15;16.52;;;6.10;99.90;;;;;;5007117;28;21896;-70
2022/01/23 08:42:23;;;;;;;29.85;17.45;;;6.10;99.90;;;;;;5006589;28;20064;-70
2022/01/23 08:44:50;;;;;;;26.48;16.50;;;6.10;99.90;;;;;;5006251;28;20152;-70
2022/01/23 08:47:17;;;;;;;29.45;17.45;;;6.10;99.90;;;;;;5008403;28;20151;-70
2022/01/23 08:49:48;;;;;;;26.58;16.90;;;6.10;99.90;;;;;;5008166;28;20055;-70
2022/01/23 08:52:20;;;;;;;26.92;16.63;;;6.20;99.90;;;;;;5009308;28;20049;-69
2022/01/23 08:54:51;;;;;;;27.45;16.95;;;6.20;99.90;;;;;;5006456;28;20051;-69
2022/01/23 08:57:18;;;;;;;29.00;17.35;;;6.20;99.90;;;;;;5004640;28;20088;-70
2022/01/23 08:59:44;;;;;;;28.67;16.73;;;6.20;99.90;;;;;;5004174;28;20037;-70
2022/01/23 09:02:10;;;;;;;27.05;17.25;;;6.20;99.90;;;;;;5010769;28;20048;-71
2022/01/23 09:04:37;;;;;;;25.40;16.42;;;6.30;99.90;;;;;;5010271;28;20124;-70
2022/01/23 09:07:03;;;;;;;23.77;15.07;;;6.30;99.90;;;;;;5008603;28;20062;-70
2022/01/23 09:09:37;;;;;;;26.10;16.63;;;6.30;99.90;;;;;;5010659;28;20436;-70
2022/01/23 09:12:08;;;;;;;29.95;17.00;;;6.30;99.90;;;;;;5009624;28;20056;-70
2022/01/23 09:14:33;;;;;;;29.25;17.95;;;6.30;99.90;;;;;;5009516;28;20378;-70
2022/01/23 09:17:00;;;;;;;24.95;17.00;;;6.30;99.90;;;;;;5010314;28;20100;-70
2022/01/23 09:19:27;;;;;;;27.23;17.02;;;6.30;99.90;;;;;;5009852;28;20049;-71
2022/01/23 09:21:54;;;;;;;25.88;16.83;;;6.40;99.90;;;;;;5008582;28;20763;-70
2022/01/23 09:24:22;;;;;;;25.25;16.77;;;6.40;99.90;;;;;;5003242;28;20084;-71
2022/01/23 09:26:53;;;;;;;25.05;17.05;;;6.40;99.90;;;;;;5009025;28;20050;-70
2022/01/23 09:29:33;;;;;;;27.08;16.75;;;6.40;99.90;;;;;;5008560;28;20058;-70
2022/01/23 09:32:00;;;;;;;22.85;15.52;;;6.40;99.90;;;;;;5010745;28;20065;-71
2022/01/23 09:34:29;;;;;;;21.92;15.40;;;6.50;99.90;;;;;;5009890;28;20437;-70
2022/01/23 09:36:56;;;;;;;21.70;14.48;;;6.50;99.90;;;;;;5009918;28;20046;-71
2022/01/23 09:39:22;;;;;;;24.10;15.93;;;6.50;99.90;;;;;;5009387;28;20037;-70
2022/01/23 09:41:50;;;;;;;22.95;15.23;;;6.50;99.90;;;;;;5008866;28;20053;-71
2022/01/23 09:44:17;;;;;;;23.25;16.02;;;6.60;99.90;;;;;;5010376;28;20100;-70
2022/01/23 09:46:45;;;;;;;20.98;14.57;;;6.60;99.90;;;;;;5010657;28;20088;-70
2022/01/23 09:49:14;;;;;;;19.17;13.15;;;6.60;99.90;;;;;;5008884;28;20555;-70
2022/01/23 09:51:46;;;;;;;17.30;12.85;;;6.60;99.90;;;;;;5009236;28;20042;-71
2022/01/23 09:54:14;;;;;;;19.60;12.55;;;6.70;99.90;;;;;;5010182;28;20459;-71
2022/01/23 09:56:42;;;;;;;16.40;12.05;;;6.70;99.90;;;;;;5007645;28;20555;-70
2022/01/23 09:59:12;;;;;;;18.35;12.93;;;6.70;99.90;;;;;;5009035;28;20046;-70
2022/01/23 10:01:42;;;;;;;17.30;12.35;;;6.80;99.90;;;;;;5007361;28;20088;-70
2022/01/23 10:04:09;;;;;;;17.05;11.95;;;6.70;99.90;;;;;;5008614;28;20057;-71
2022/01/23 10:06:35;;;;;;;15.80;11.57;;;6.80;99.90;;;;;;5009620;28;20451;-71
2022/01/23 10:09:05;;;;;;;15.82;11.60;;;6.80;99.90;;;;;;5007071;28;20046;-71
2022/01/23 10:11:35;;;;;;;16.00;11.55;;;6.80;99.90;;;;;;5008414;28;20057;-71
2022/01/23 10:14:01;;;;;;;16.15;11.95;;;6.80;99.90;;;;;;5008751;28;20053;-71
2022/01/23 10:16:27;;;;;;;14.48;10.77;;;6.90;99.90;;;;;;5009162;28;20042;-70
2022/01/23 10:18:53;;;;;;;15.48;9.93;;;6.90;99.90;;;;;;5013818;28;20496;-71
2022/01/23 10:21:19;;;;;;;14.13;9.52;;;6.90;99.90;;;;;;5009566;28;20568;-71
2022/01/23 10:23:45;;;;;;;14.27;9.85;;;6.90;99.90;;;;;;5008323;28;20033;-72
2022/01/23 10:26:12;;;;;;;11.82;8.63;;;6.90;99.90;;;;;;5010062;28;20076;-71
2022/01/23 10:28:38;;;;;;;13.35;8.93;;;7.00;99.90;;;;;;5011376;28;20045;-71
2022/01/23 10:31:05;;;;;;;12.32;8.57;;;7.00;99.90;;;;;;5009014;28;20054;-71
2022/01/23 10:33:36;;;;;;;10.80;8.10;;;7.00;99.90;;;;;;5007963;28;20046;-70
2022/01/23 10:36:08;;;;;;;10.98;6.82;;;7.00;99.90;;;;;;5008432;28;20041;-69
2022/01/23 10:38:52;;;;;;;14.07;7.00;;;7.00;99.90;;;;;;5007972;28;20046;-71
2022/01/23 10:50:06;;;;;;;8.88;6.55;;;7.10;99.90;;;;;;5008551;28;20049;-70
2022/01/23 10:52:36;;;;;;;10.15;5.85;;;7.10;99.90;;;;;;5007734;28;20429;-70
2022/01/23 10:55:25;;;;;;;8.57;6.40;;;7.10;99.90;;;;;;5007080;28;20058;-69
2022/01/23 10:57:54;;;;;;;8.45;6.28;;;7.20;99.90;;;;;;4999326;28;20077;-69
2022/01/23 11:00:35;;;;;;;8.57;5.70;;;7.20;99.90;;;;;;5009397;28;20049;-70
2022/01/23 11:03:22;;;;;;;10.07;5.65;;;7.20;99.90;;;;;;5006990;28;20540;-71
2022/01/23 11:05:48;;;;;;;8.68;4.60;;;7.20;99.90;;;;;;5006999;28;20108;-70
2022/01/23 11:08:25;;;;;;;10.03;5.20;;;7.20;99.90;;;;;;5007534;28;20087;-71
2022/01/23 11:11:01;;;;;;;8.45;5.53;;;7.30;99.90;;;;;;5007783;28;20045;-70
2022/01/23 11:19:20;;;;;;;8.48;5.40;;;7.30;99.90;;;;;;5007435;28;20501;-71
2022/01/23 11:21:46;;;;;;;7.35;5.13;;;7.40;99.90;;;;;;5008448;28;20057;-70
2022/01/23 11:24:13;;;;;;;7.07;4.45;;;7.30;99.90;;;;;;5008730;28;20048;-70
2022/01/23 11:26:40;;;;;;;5.05;3.30;;;7.40;99.90;;;;;;5006669;28;20029;-71
2022/01/23 11:29:12;;;;;;;6.57;4.00;;;7.40;99.90;;;;;;5007363;28;20042;-70
2022/01/23 11:31:39;;;;;;;6.60;3.30;;;7.40;99.90;;;;;;5007753;28;20053;-71
2022/01/23 11:34:06;;;;;;;4.53;3.05;;;7.40;99.90;;;;;;5004064;28;20041;-71
2022/01/23 11:36:32;;;;;;;5.55;3.90;;;7.40;99.90;;;;;;5008438;28;20120;-70
2022/01/23 11:39:07;;;;;;;5.85;3.67;;;7.40;99.90;;;;;;5006694;28;20160;-71
2022/01/23 11:56:01;;;;;;;5.70;3.67;;;7.40;99.90;;;;;;4946456;28;20521;-72
2022/01/23 11:58:36;;;;;;;6.50;4.10;;;7.40;99.90;;;;;;4947501;28;20079;-70
2022/01/23 12:01:19;;;;;;;6.63;4.28;;;7.40;99.90;;;;;;4974724;28;20559;-71
2022/01/23 12:04:16;;;;;;;5.35;2.83;;;7.40;99.90;;;;;;5005491;28;20089;-72
2022/01/23 12:06:44;;;;;;;9.05;4.22;;;7.50;99.90;;;;;;4998630;28;20073;-69
2022/01/23 12:09:10;;;;;;;5.90;4.30;;;7.50;99.90;;;;;;5006384;28;20080;-70
2022/01/23 12:16:22;;;;;;;9.02;4.53;;;7.40;99.90;;;;;;5023752;28;20078;-70
2022/01/23 12:17:04;;;;;;;3.15;1.90;;;7.40;99.90;;;;;;5004893;28;20050;-70
2022/01/23 12:19:32;;;;;;;3.63;2.22;;;7.50;99.90;;;;;;5007822;28;20049;-70
2022/01/23 12:22:18;;;;;;;2.40;1.60;;;7.50;99.90;;;;;;5007926;28;20054;-70
2022/01/23 12:24:54;;;;;;;3.22;2.00;;;7.50;99.90;;;;;;5007878;28;20516;-70
2022/01/23 12:27:28;;;;;;;4.63;2.45;;;7.50;99.90;;;;;;5010651;28;20049;-71
2022/01/23 12:29:56;;;;;;;4.25;2.55;;;7.50;99.90;;;;;;5008565;28;20044;-71
2022/01/23 12:32:29;;;;;;;3.97;2.92;;;7.50;99.90;;;;;;5012924;28;20041;-70
2022/01/23 12:35:05;;;;;;;4.05;2.50;;;7.50;99.90;;;;;;5011402;28;20516;-71
2022/01/23 12:37:55;;;;;;;4.55;2.72;;;7.50;99.90;;;;;;5010233;28;20063;-71
2022/01/23 12:40:40;;;;;;;4.95;3.00;;;7.40;99.90;;;;;;5008789;28;20141;-70
2022/01/23 12:43:17;;;;;;;3.83;2.40;;;7.40;99.90;;;;;;5011656;28;20037;-73
2022/01/23 12:46:08;;;;;;;5.57;2.75;;;7.40;99.90;;;;;;5009120;28;20096;-71
2022/01/23 12:48:39;;;;;;;5.45;3.67;;;7.40;99.90;;;;;;5010353;28;20100;-70
2022/01/23 12:51:06;;;;;;;6.18;3.53;;;7.30;99.90;;;;;;5008656;28;20493;-70
2022/01/23 12:53:54;;;;;;;6.78;4.00;;;7.40;99.90;;;;;;5010356;28;20057;-70
2022/01/23 12:56:21;;;;;;;5.68;3.72;;;7.40;99.90;;;;;;5010105;28;20045;-69
2022/01/23 12:58:54;;;;;;;7.93;4.40;;;7.30;99.90;;;;;;4998687;28;20544;-69
2022/01/23 13:01:23;;;;;;;6.93;4.63;;;7.30;99.90;;;;;;5000635;28;20060;-70
2022/01/23 13:03:57;;;;;;;6.45;4.35;;;7.30;99.90;;;;;;5008320;28;20111;-70
2022/01/23 13:06:50;;;;;;;7.25;5.35;;;7.30;99.90;;;;;;5008962;28;20137;-73
2022/01/23 13:12:06;;;;;;;8.32;5.60;;;7.20;99.90;;;;;;5009266;28;20052;-71
2022/01/23 13:17:45;;;;;;;7.93;5.22;;;7.20;99.90;;;;;;5010643;28;20050;-72
2022/01/23 13:31:44;;;;;;;10.52;6.53;;;7.20;99.90;;;;;;5009856;28;20085;-70
2022/01/23 13:34:34;;;;;;;9.63;6.05;;;7.20;99.90;;;;;;5005857;28;20029;-70
2022/01/23 13:37:10;;;;;;;8.05;5.03;;;7.20;99.90;;;;;;5010734;28;20096;-70
2022/01/23 13:39:57;;;;;;;11.52;8.35;;;7.20;99.90;;;;;;5008589;28;20049;-70
2022/01/23 13:53:36;;;;;;;;;;;7.10;99.90;;;;;;5010792;28;20057;-70
2022/01/23 13:59:12;;;;;;;4.97;2.75;;;7.10;99.90;;;;;;5001928;28;20085;-70
2022/01/23 14:04:19;;;;;;;9.52;8.20;;;7.10;99.90;;;;;;5003211;28;20049;-71
2022/01/23 14:06:45;;;;;;;19.10;17.10;;;7.10;99.90;;;;;;5008573;28;20050;-71
2022/01/23 14:09:12;;;;;;;35.00;30.40;;;7.10;99.90;;;;;;5008102;28;20060;-74
2022/01/23 14:11:39;;;;;;;7.78;6.60;;;7.10;99.90;;;;;;5010020;28;20070;-72
2022/01/23 14:14:23;;;;;;;5.72;4.20;;;7.10;99.90;;;;;;5011440;28;20552;-74
2022/01/23 14:16:51;;;;;;;6.25;4.65;;;7.20;99.90;;;;;;5008104;28;20148;-72
2022/01/23 14:19:18;;;;;;;6.07;4.18;;;7.10;99.90;;;;;;5010712;28;20069;-72
2022/01/23 14:21:47;;;;;;;5.50;4.25;;;7.10;99.90;;;;;;5008626;28;20049;-71
2022/01/23 14:24:21;;;;;;;5.90;4.05;;;7.10;99.90;;;;;;5015941;28;20088;-70
2022/01/23 14:27:02;;;;;;;5.10;4.03;;;7.10;99.90;;;;;;5006072;28;20096;-70
2022/01/23 14:29:34;;;;;;;6.05;4.10;;;7.10;99.90;;;;;;5008089;28;20042;-71
2022/01/23 14:32:19;;;;;;;6.55;3.85;;;7.10;99.90;;;;;;5003669;28;20485;-72
2022/01/23 14:34:45;;;;;;;6.07;4.00;;;7.10;99.90;;;;;;5008212;28;20057;-72
2022/01/23 14:37:11;;;;;;;5.07;3.63;;;7.10;99.90;;;;;;5014489;28;20042;-72
2022/01/23 14:39:37;;;;;;;7.13;4.07;;;7.10;99.90;;;;;;5008134;28;20084;-73
2022/01/23 14:42:15;;;;;;;6.88;4.75;;;7.10;99.90;;;;;;5009651;28;20553;-72
2022/01/23 14:44:41;;;;;;;5.68;3.83;;;7.10;99.90;;;;;;4988257;28;20631;-72
2022/01/23 14:47:08;;;;;;;4.40;3.05;;;7.10;99.90;;;;;;4990432;28;20046;-72
2022/01/23 14:49:36;;;;;;;3.58;2.83;;;7.10;99.90;;;;;;5028591;28;20443;-73
2022/01/23 14:52:04;;;;;;;5.07;3.35;;;7.10;99.90;;;;;;5027482;28;20480;-73
2022/01/23 14:54:32;;;;;;;5.13;3.40;;;7.10;99.90;;;;;;5027866;28;20525;-73
2022/01/23 14:57:01;;;;;;;5.50;3.55;;;7.10;99.90;;;;;;5029075;28;20037;-73
2022/01/23 14:59:30;;;;;;;6.35;4.82;;;7.10;99.90;;;;;;5010629;28;20123;-73
2022/01/23 15:01:56;;;;;;;8.25;7.10;;;7.00;99.90;;;;;;5009004;28;20065;-73
2022/01/23 15:04:23;;;;;;;12.70;11.50;;;7.10;99.90;;;;;;5007636;28;20076;-73
2022/01/23 15:06:52;;;;;;;6.57;5.85;;;7.10;99.90;;;;;;5007967;28;20801;-73
2022/01/23 15:09:19;;;;;;;5.78;3.92;;;7.10;99.90;;;;;;5006744;28;20045;-76
2022/01/23 15:11:45;;;;;;;5.40;4.18;;;7.00;99.90;;;;;;5003025;28;20070;-74
2022/01/23 15:14:11;;;;;;;5.82;3.60;;;7.10;99.90;;;;;;5008095;28;20068;-72
2022/01/23 15:16:38;;;;;;;7.90;6.22;;;7.10;99.90;;;;;;5007343;28;20048;-70
2022/01/23 15:19:05;;;;;;;86.65;74.88;;;7.00;99.90;;;;;;5008059;28;20505;-70
2022/01/23 15:21:31;;;;;;;86.75;61.78;;;7.00;99.90;;;;;;5005215;28;20064;-70
2022/01/23 15:23:56;;;;;;;8.90;6.45;;;7.00;99.90;;;;;;5008152;28;20034;-70
2022/01/23 15:26:30;;;;;;;5.97;3.90;;;7.00;99.90;;;;;;5007299;28;20486;-72
2022/01/23 15:28:56;;;;;;;8.50;7.10;;;7.00;99.90;;;;;;5007041;28;20049;-69
2022/01/23 15:31:23;;;;;;;17.67;15.93;;;7.00;99.90;;;;;;5009595;28;20128;-69
2022/01/23 15:33:49;;;;;;;9.00;8.10;;;7.00;99.90;;;;;;5007581;28;20652;-70
2022/01/23 15:36:14;;;;;;;10.05;9.15;;;7.00;99.90;;;;;;5007063;28;20050;-70
2022/01/23 15:38:43;;;;;;;11.57;10.38;;;7.00;99.90;;;;;;5008113;28;20100;-69
2022/01/23 15:41:10;;;;;;;17.10;15.30;;;6.90;99.90;;;;;;5007227;28;20132;-70
2022/01/23 15:43:37;;;;;;;12.75;11.55;;;7.00;99.90;;;;;;5008894;28;20099;-70
2022/01/23 15:46:03;;;;;;;10.63;6.82;;;6.90;99.90;;;;;;5008440;28;20088;-71
2022/01/23 15:48:30;;;;;;;7.00;4.10;;;6.90;99.90;;;;;;5006364;28;20481;-70
2022/01/23 15:51:02;;;;;;;5.22;4.30;;;6.90;99.90;;;;;;5006442;28;20080;-69
2022/01/23 15:53:28;;;;;;;6.40;3.90;;;6.90;99.90;;;;;;5007033;28;20041;-70
2022/01/23 15:55:54;;;;;;;11.20;9.00;;;6.90;99.90;;;;;;5007085;28;20046;-69
2022/01/23 15:58:20;;;;;;;7.60;5.53;;;6.90;99.90;;;;;;5008799;28;20547;-70
2022/01/23 16:00:45;;;;;;;39.42;32.83;;;6.90;99.90;;;;;;5005170;28;20046;-70
2022/01/23 16:03:11;;;;;;;33.03;27.88;;;6.90;99.90;;;;;;5007544;28;20071;-70
2022/01/23 16:05:37;;;;;;;17.83;13.10;;;6.90;99.90;;;;;;5005836;28;20413;-70
2022/01/23 16:08:03;;;;;;;77.10;55.90;;;6.90;99.90;;;;;;5006449;28;20440;-70
2022/01/23 16:10:28;;;;;;;40.03;30.52;;;6.90;99.90;;;;;;5022810;28;20042;-70
2022/01/23 16:12:54;;;;;;;19.95;14.25;;;6.90;99.90;;;;;;5010180;28;20497;-70
2022/01/23 16:15:21;;;;;;;7.82;5.75;;;6.90;99.90;;;;;;5008291;28;20444;-70
2022/01/23 16:17:48;;;;;;;106.78;66.72;;;6.90;99.90;;;;;;5007851;28;20054;-72
2022/01/23 16:20:15;;;;;;;79.43;48.63;;;6.90;99.90;;;;;;5006440;28;20050;-70
2022/01/23 16:22:42;;;;;;;26.42;14.27;;;6.90;99.90;;;;;;5004352;28;20050;-71
2022/01/23 16:25:10;;;;;;;8.77;4.55;;;6.80;99.90;;;;;;5006539;28;20038;-71
2022/01/23 16:27:36;;;;;;;5.03;3.60;;;6.80;99.90;;;;;;5004680;28;20065;-71
2022/01/23 16:30:04;;;;;;;7.45;4.32;;;6.80;99.90;;;;;;5003955;28;20034;-71
2022/01/23 16:32:29;;;;;;;20.65;17.02;;;6.90;99.90;;;;;;5007431;28;20048;-70
2022/01/23 16:34:55;;;;;;;24.77;20.23;;;6.80;99.90;;;;;;5007119;28;20042;-70
2022/01/23 16:37:20;;;;;;;29.52;24.33;;;6.80;99.90;;;;;;5006496;28;20046;-69
2022/01/23 16:39:46;;;;;;;11.27;8.07;;;6.80;99.90;;;;;;5007442;28;20044;-70
2022/01/23 16:42:12;;;;;;;11.40;8.80;;;6.90;99.90;;;;;;5006963;28;20042;-70